Maurice Sir Seewoosagur Ramgoolam - Réunion Rolland Garros


#1

Salut,

Aujourd’hui petit vol entre l’île Maurice et la voisine : La Réunion.

L’appareil utilisé est un Boeing 777-2 d’Air Austral.

Durée du vol : 40 minutes
Météo :
METAR FIMP :
FIMP 011700Z 15017KT 9999 VCSH BKN014 BKN050 22/19 Q1021

METAR FMEE :
FMEE 011700Z 12019KT 9999 FEW023 BKN046 21/17 Q1021 TEMPO 12018G28KT

Pas mal de trafic en ce début d’après midi à Plaisance

340 MK au freinage

Notre avion du jour, ce sera le F-OLRA

Direction la piste en service

Alignement, CheckLists…

Rotation

Vario positif, Train sur rentré :smiley:

Montée à 14 000fts qui sera notre premier palier vers 18 000

Premier virage, survol de MRU

20 minutes plus tard, La Réunion est en vue :exclamation:

Sortie du train

Vidéo de l’atterrissage ici : youtube.com/watch?v=ukaGfNESNqI

Landing :smiley:

Parking :smiley:

Addons :
-PMDG 777 Base Pack
-FranceVFR La Reunion
-Maurice - Plaisance sur AVSIM

Bonne soirée :wink: .


#2

C’est toujours aussi beau! J’aime beaucoup quand tu donnes des petites précisions sur ton vol comme les Metar. :slight_smile:

Sent from my iPod touch using Tapatalk - now Free


#3

Merci :smiley: !